Borkenberge Airport

EDLB · Nordrhein-Westfalen, Deutschland

METAR-Geschichte EDLB · Borkenberge Airport

Unten siehst du die METARs der letzten paar Tage. Wähle ein Jahr, um ältere METARs ab dem Jahr 2007 zu durchsuchen.

27. November 2022

Uhrzeit Code Wetter Temp. Sichtweite Wolkendecke Wind METAR/SPECI
13:20
V
10 °C 10 km+ - Var Var 4 kt METAR EDLW 271220Z VRB04KT CAVOK 10/01 Q1020
12:50
V
10 °C 10 km+ - 190° 190° 4 kt METAR EDLW 271150Z 19004KT 150V230 CAVOK 10/01 Q1020
12:20
V
10 °C 10 km+ - Var Var 3 kt METAR EDLW 271120Z VRB03KT CAVOK 10/02 Q1021
11:50
V
9 °C 10 km+ - Var Var 4 kt METAR EDLW 271050Z VRB04KT CAVOK 09/01 Q1021
11:20
V
9 °C 10 km+ - 210° 210° 5 kt METAR EDLW 271020Z 21005KT 140V280 CAVOK 09/01 Q1021
10:50
V
9 °C 10 km+ - 160° 160° 13 kt METAR EDLW 270950Z 16013KT CAVOK 09/02 Q1021
10:20
V
8 °C 10 km+ - 160° 160° 15 kt METAR EDLW 270920Z 16015KT CAVOK 08/02 Q1021
09:50
V
8 °C 10 km+ - 160° 160° 15 kt METAR EDLW 270850Z 16015KT CAVOK 08/02 Q1022
09:20
V
7 °C 10 km+ - 170° 170° 13 kt METAR EDLW 270820Z 17013KT CAVOK 07/02 Q1022
08:50
V
7 °C 10 km+ - 170° 170° 12 kt METAR EDLW 270750Z 17012KT CAVOK 07/02 Q1022
08:20
V
6 °C 10 km+ - 170° 170° 12 kt METAR EDLW 270720Z 17012KT CAVOK 06/02 Q1023
07:50
V
6 °C 10 km+ - 170° 170° 10 kt METAR EDLW 270650Z 17010KT 140V200 CAVOK 06/01 Q1023
07:20
V
6 °C 10 km+ - 150° 150° 10 kt METAR EDLW 270620Z 15010KT CAVOK 06/01 Q1023
06:50
V
6 °C 10 km+ - 160° 160° 12 kt METAR EDLW 270550Z 16012KT CAVOK 06/01 Q1023
06:20
V
6 °C 10 km+ - 150° 150° 11 kt METAR EDLW 270520Z 15011KT CAVOK 06/01 Q1023
05:50
V
6 °C 10 km+ - 160° 160° 12 kt METAR EDLW 270450Z 16012KT CAVOK 06/01 Q1024
05:20
V
5 °C 10 km+ - 170° 170° 12 kt METAR EDLW 270420Z 17012KT CAVOK 05/01 Q1024
04:50
V
5 °C 10 km+ - 170° 170° 11 kt METAR EDLW 270350Z AUTO 17011KT 9999 // NCD 05/01 Q1024
04:20
V
5 °C 10 km+ - 160° 160° 7 kt METAR EDLW 270320Z AUTO 16007KT 9999 // NCD 05/01 Q1025
03:50
V
4 °C 10 km+ - 160° 160° 6 kt METAR EDLW 270250Z AUTO 16006KT 9999 // NCD 04/01 Q1025
03:20
V
4 °C 10 km+ - 170° 170° 6 kt METAR EDLW 270220Z AUTO 17006KT 9999 // NCD 04/01 Q1026
02:50
V
4 °C 10 km+ - 140° 140° 7 kt METAR EDLW 270150Z AUTO 14007KT 110V170 9999 // NCD 04/01 Q1026
02:20
V
4 °C 10 km+ - 150° 150° 7 kt METAR EDLW 270120Z AUTO 15007KT 9999 // NCD 04/01 Q1026
01:50
V
4 °C 10 km+ - 180° 180° 6 kt METAR EDLW 270050Z AUTO 18006KT 150V210 9999 // NCD 04/01 Q1026
01:20
V
5 °C 10 km+ - 170° 170° 6 kt METAR EDLW 270020Z AUTO 17006KT 130V220 9999 // NCD 05/02 Q1026
00:50
V
5 °C 10 km+ - 160° 160° 10 kt METAR EDLW 262350Z AUTO 16010KT 9999 // NCD 05/02 Q1026
00:20
V
6 °C 10 km+ - 180° 180° 8 kt METAR EDLW 262320Z AUTO 18008KT 150V210 9999 // NCD 06/03 Q1027

26. November 2022

Uhrzeit Code Wetter Temp. Sichtweite Wolkendecke Wind METAR/SPECI
23:50
V
6 °C 10 km+ - 170° 170° 9 kt METAR EDLW 262250Z AUTO 17009KT 9999 // NCD 06/03 Q1027
23:20
V
6 °C 10 km+ - 160° 160° 8 kt METAR EDLW 262220Z AUTO 16008KT 9999 // NCD 06/04 Q1028
22:50
V
5 °C 10 km+ - 190° 190° 5 kt METAR EDLW 262150Z 19005KT CAVOK 05/03 Q1028
22:20
V
6 °C 10 km+ - 170° 170° 5 kt METAR EDLW 262120Z 17005KT CAVOK 06/04 Q1028
21:50
V
5 °C 10 km+ - 170° 170° 7 kt METAR EDLW 262050Z 17007KT CAVOK 05/03 Q1028
21:20
V
5 °C 10 km+ - 160° 160° 9 kt METAR EDLW 262020Z 16009KT CAVOK 05/03 Q1028
20:50
V
6 °C 10 km+ - 160° 160° 10 kt METAR EDLW 261950Z 16010KT CAVOK 06/04 Q1028
20:20
V
6 °C 10 km+ - 160° 160° 9 kt METAR EDLW 261920Z 16009KT CAVOK 06/04 Q1028
19:50
V
6 °C 10 km+ - 160° 160° 8 kt METAR EDLW 261850Z 16008KT CAVOK 06/04 Q1028
19:20
V
7 °C 10 km+ - 170° 170° 9 kt METAR EDLW 261820Z 17009KT CAVOK 07/04 Q1029
18:50
V
7 °C 10 km+ - 170° 170° 9 kt METAR EDLW 261750Z 17009KT CAVOK 07/04 Q1029
18:20
V
7 °C 10 km+ - 170° 170° 10 kt METAR EDLW 261720Z 17010KT CAVOK 07/04 Q1029
17:50
V
8 °C 10 km+ - 200° 200° 7 kt METAR EDLW 261650Z 20007KT CAVOK 08/04 Q1029
17:20
V
8 °C 10 km+ - 190° 190° 9 kt METAR EDLW 261620Z 19009KT CAVOK 08/05 Q1029
16:50
V
8 °C 10 km+ - 180° 180° 8 kt METAR EDLW 261550Z 18008KT CAVOK 08/06 Q1029
16:20
V
9 °C 10 km+ - 180° 180° 7 kt METAR EDLW 261520Z 18007KT CAVOK 09/06 Q1029
15:50
V
9 °C 10 km+ - 190° 190° 7 kt METAR EDLW 261450Z 19007KT CAVOK 09/06 Q1029
15:20
V
9 °C 10 km+ - 190° 190° 7 kt METAR EDLW 261420Z 19007KT CAVOK 09/06 Q1029
14:50
V
10 °C 10 km+ - 210° 210° 8 kt METAR EDLW 261350Z 21008KT CAVOK 10/07 Q1029
14:20
V
10 °C 10 km+ - 210° 210° 8 kt METAR EDLW 261320Z 21008KT 9999 FEW024 10/07 Q1029
13:50
V
10 °C 10 km+ - 200° 200° 7 kt METAR EDLW 261250Z 20007KT CAVOK 10/07 Q1029
13:20
V
10 °C 10 km+ - 210° 210° 8 kt METAR EDLW 261220Z 21008KT CAVOK 10/07 Q1029
12:50
V
10 °C 10 km+ - 200° 200° 7 kt METAR EDLW 261150Z 20007KT CAVOK 10/07 Q1029
12:20
V
9 °C 10 km+ - 190° 190° 7 kt METAR EDLW 261120Z 19007KT CAVOK 09/06 Q1029
11:50
V
9 °C 10 km+ - 200° 200° 9 kt METAR EDLW 261050Z 20009KT CAVOK 09/06 Q1029
11:20
V
8 °C 10 km+ - 200° 200° 9 kt METAR EDLW 261020Z 20009KT CAVOK 08/07 Q1030
10:50
V
8 °C 10 km+ - 200° 200° 8 kt METAR EDLW 260950Z 20008KT CAVOK 08/06 Q1029
10:20
V
7 °C 10 km+ - 180° 180° 10 kt METAR EDLW 260920Z 18010KT CAVOK 07/06 Q1029
09:50
V
7 °C 10 km+ - 180° 180° 9 kt METAR EDLW 260850Z 18009KT CAVOK 07/06 Q1029
09:20
V
7 °C 10 km+ - 190° 190° 10 kt METAR EDLW 260820Z 19010KT CAVOK 07/06 Q1029
08:50
V
6 °C 10 km+ - 180° 180° 10 kt METAR EDLW 260750Z 18010KT CAVOK 06/05 Q1029
08:20
V
6 °C 10 km+ - 180° 180° 9 kt METAR EDLW 260720Z 18009KT CAVOK 06/05 Q1028
07:50
V
5 °C 10 km+ - 190° 190° 10 kt METAR EDLW 260650Z 19010KT CAVOK 05/05 Q1028
07:20
V
5 °C 10 km+ - 190° 190° 8 kt METAR EDLW 260620Z 19008KT CAVOK 05/04 Q1028
06:50
V
5 °C 10 km+ - 190° 190° 8 kt METAR EDLW 260550Z 19008KT 9999 FEW024 05/05 Q1028
06:20
V
5 °C 10 km+ - 190° 190° 8 kt METAR EDLW 260520Z 19008KT 9999 SCT025 05/04 Q1028
05:50
M
6 °C 10 km+ 2.500 ft 200° 200° 9 kt METAR EDLW 260450Z 20009KT 9999 BKN025 06/05 Q1027
05:20
V
5 °C 10 km+ - 180° 180° 8 kt METAR EDLW 260420Z 18008KT 9999 FEW025 05/05 Q1027
04:50
V
6 °C 10 km+ - 170° 170° 7 kt METAR EDLW 260350Z AUTO 17007KT 9999 // FEW026/// 06/05 Q1026
04:20
V
5 °C 10 km+ - 180° 180° 7 kt METAR EDLW 260320Z AUTO 18007KT 9999 // FEW025/// 05/04 Q1026
03:50
V
6 °C 10 km+ - 190° 190° 7 kt METAR EDLW 260250Z AUTO 19007KT 9999 // SCT026/// 06/05 Q1026
03:20
V
6 °C 10 km+ - 210° 210° 8 kt METAR EDLW 260220Z AUTO 21008KT 9999 // FEW025/// 06/05 Q1026
02:50
V
6 °C 10 km+ - 210° 210° 7 kt METAR EDLW 260150Z AUTO 21007KT 9999 // FEW023/// SCT027/// 06/05 Q1026
02:20
V
6 °C 10 km+ - 210° 210° 8 kt METAR EDLW 260120Z AUTO 21008KT 9999 // NCD 06/05 Q1026
01:50
V
6 °C 10 km+ - 220° 220° 6 kt METAR EDLW 260050Z AUTO 22006KT 9999 // NCD 06/05 Q1026
01:20
V
6 °C 10 km+ - 210° 210° 8 kt METAR EDLW 260020Z AUTO 21008KT 9999 // NCD 06/05 Q1025
00:50
V
6 °C 10 km+ - 210° 210° 7 kt METAR EDLW 252350Z AUTO 21007KT 9999 // NCD 06/06 Q1025
00:20
V
7 °C 10 km+ - 220° 220° 7 kt METAR EDLW 252320Z AUTO 22007KT 9999 // FEW008/// 07/06 Q1025

25. November 2022

Uhrzeit Code Wetter Temp. Sichtweite Wolkendecke Wind METAR/SPECI
23:50
M
7 °C 10 km+ 1.400 ft 220° 220° 7 kt METAR EDLW 252250Z AUTO 22007KT 9999 // BKN014/// 07/06 Q1024
22:50
V
7 °C 10 km+ - 220° 220° 7 kt METAR EDLW 252150Z 22007KT 9999 FEW023 07/06 Q1023
22:20
M
7 °C 10 km+ 2.200 ft 230° 230° 8 kt METAR EDLW 252120Z 23008KT 9999 FEW014 SCT018 BKN022 07/06 Q1023
21:50
M
7 °C 10 km+ 1.500 ft 230° 230° 7 kt METAR EDLW 252050Z 23007KT 9999 BKN015 BKN026 07/06 Q1023
21:20
M
8 °C 10 km+ 2.100 ft 230° 230° 7 kt METAR EDLW 252020Z 23007KT 9999 FEW015 BKN021 08/07 Q1022
20:50
V
8 °C 10 km+ - 230° 230° 7 kt METAR EDLW 251950Z 23007KT 9999 FEW019 08/07 Q1022
20:20
V
8 °C 10 km+ - 230° 230° 8 kt METAR EDLW 251920Z 23008KT 9999 FEW019 08/07 Q1021
19:50
V
8 °C 10 km+ - 230° 230° 9 kt METAR EDLW 251850Z 23009KT 9999 FEW022 08/07 Q1021
19:20
V
9 °C 10 km+ 3.100 ft 220° 220° 8 kt METAR EDLW 251820Z 22008KT 9999 FEW013 BKN031 09/07 Q1020
18:50
M
9 °C 10 km+ 2.300 ft 220° 220° 8 kt METAR EDLW 251750Z 22008KT 9999 -RA BKN023 09/07 Q1020
18:20
V
9 °C 10 km+ 4.800 ft 210° 210° 8 kt METAR EDLW 251720Z 21008KT 9999 FEW021 OVC048 09/07 Q1019
17:50
V
9 °C 10 km+ 3.400 ft 220° 220° 7 kt METAR EDLW 251650Z 22007KT 9999 SCT026 BKN034 09/07 Q1019
17:20
V
9 °C 10 km+ 4.400 ft 210° 210° 7 kt METAR EDLW 251620Z 21007KT 9999 FEW023 BKN044 09/07 Q1019
16:50
V
9 °C 10 km+ 3.300 ft 220° 220° 5 kt METAR EDLW 251550Z 22005KT 9999 FEW019 BKN033 09/07 Q1018
16:20
M
9 °C 10 km+ 2.100 ft Var Var 2 kt METAR EDLW 251520Z VRB02KT 9999 VCSH BKN021TCU 09/07 Q1018 RESHRA
15:50
M
10 °C 10 km+ 2.700 ft 220° 220° 8 kt METAR EDLW 251450Z 22008KT 9999 SCT022 BKN027 10/07 Q1017
15:20
V
10 °C 10 km+ 3.400 ft 230° 230° 8 kt METAR EDLW 251420Z 23008KT 9999 FEW022CB BKN034 10/07 Q1017
14:50
V
10 °C 10 km+ 4.800 ft 230° 230° 9 kt METAR EDLW 251350Z 23009KT 9999 FEW020 SCT026 BKN048 10/07 Q1017
14:20
M
11 °C 10 km+ 2.600 ft 230° 230° 11 kt METAR EDLW 251320Z 23011KT 9999 SCT020 BKN026 11/07 Q1016
13:50
V
10 °C 10 km+ - 220° 220° 10 kt METAR EDLW 251250Z 22010KT 9999 FEW018 SCT047 10/07 Q1016
13:20
V
11 °C 10 km+ 4.600 ft 230° 230° 12 kt METAR EDLW 251220Z 23012KT 9999 FEW018 BKN046 11/07 Q1016
12:50
V
10 °C 10 km+ - 230° 230° 12 kt METAR EDLW 251150Z 23012KT 9999 FEW028 10/07 Q1015
12:20
V
10 °C 10 km+ - 230° 230° 9 kt METAR EDLW 251120Z 23009KT 9999 SCT021 10/07 Q1015
11:50
V
10 °C 10 km+ - 220° 220° 11 kt METAR EDLW 251050Z 22011KT 9999 FEW014 10/07 Q1015
11:20
V
10 °C 10 km+ - 210° 210° 11 kt METAR EDLW 251020Z 21011KT CAVOK 10/07 Q1015
10:50
V
9 °C 10 km+ - 200° 200° 11 kt METAR EDLW 250950Z 20011KT 9999 FEW038 09/07 Q1014

Wir und Dritte verfolgen dein Internetverhalten auf unserer Website mit Cookies. Wenn du fortfährst, gehen wir davon aus, dass du mit unserer Cookie-Richtlinie einverstanden bist.